Yankton, SD

04:27 CDT le 19 avril 2015 (GMT -0500)
Gurney Municipal | | Change Station
CLOSE
Current Station
Aéroport
Location: Yankton,
Altitude: 1306 ft
Stations météo à proximité

Alt. 1306 ft 42.92 °N, 97.39 °W | Updated 12 minutes ago

Nuageux
Nuageux
54 ° F
Paraît 54 ° F
N
21
Vent Variable Vent de ONO
Gusts 24 mph

Aujourd'hui
Haut(e) -- | Bas -- ° F
--% Risque de précip.
Hier
Haut(e) -- | Bas -- ° F
Precip. -- pouce
6:41 AM 8:16 PM
Nouvelle lune, 1% visible
Pression 29.74 pouce
Visibilité 3.0 Miles terrestres
Nuages Nuageux 600 ft
Point de rosée 52 ° F
Humidité 94%
Précipitations 0.00 pouce
Profondeur de la couche neigeuse Non disponible.
UV 0 sur 12
Pollen 5.00 sur 12
Qualité de l'air Non disponible.
Flu Activity Sporadic
METAR KYKN 190915Z AUTO 30018G21KT 3SM BKN006 12/11 A2974 RMK AO1

More Conditions Fewer Conditions

Pression 29.74 pouce
Visibilité 3.0 Miles terrestres
Nuages Nuageux 600 ft
Point de rosée 52 ° F
Humidité 94%
Précipitations 0.00 pouce
Profondeur de la couche neigeuse Non disponible.
UV 0 sur 12
Pollen 5.00 sur 12
Qualité de l'air Non disponible.
Flu Activity Sporadic
METAR KYKN 190915Z AUTO 30018G21KT 3SM BKN006 12/11 A2974 RMK AO1

More Conditions Fewer Conditions

10-Day Weather Forecast

Almanac

Astronomie

Apr. 19, 2015 Lever Coucher
Temps réel
Crépuscule civil
Crépuscule nautique
Crépuscule astronomique
Lune
Durée de lumière visible
Longueur du jour
Tomorrow will be .
, % of the Moon is Illuminated

Extrêmes aujourd'hui

State Highs State Lows

Community

WunderPhotos

Upload Photos

1,814,753 Photos téléchargées !

WunderBlogs® & News

Nearby

Qualité de l'air

  Qualité de l'air Indice de la qualité de l'air Polluant
Not available.

Épaisseur de neige

Station Depth Altitude

Activité sismique

Ville Distance Mag. Time & Date
Minimum magnitude displayed is 2.5.

Températures des eaux côtières

Lieu Température

Stations

Stations météo à proximité

Emplacement de la station Température Refroidissement éolien Point de rosée Humidité Vent Precip. Alt. Mise à jour Type